Time;durP1;ratioP1;P1;durP2;ratioP2;P2;SDS_P1;SDS_P2;PMS_P1;PMS_P2;Temp;Humidity;BMP_temperature;BMP_pressure;BME280_temperature;BME280_humidity;BME280_pressure;Samples;Min_cycle;Max_cycle;Signal;HPM_P1;HPM_P2
2023/04/27 00:39:15;;;;;;;10.03;1.10;;;;;;;19.57;nan;100955.66;5978347;24;20474;-87
2023/04/27 00:42:52;;;;;;;;;;;;;;;;;;;;;
2023/04/27 00:45:58;;;;;;;;;;;;;;;;;;;;;
2023/04/27 00:57:11;;;;;;;;;;;;;;;;;;;;;
2023/04/27 01:05:17;;;;;;;;;;;;;;;;;;;;;
2023/04/27 01:11:50;;;;;;;1.90;0.70;;;;;;;19.04;nan;100933.75;5970395;24;20419;-89
2023/04/27 01:14:42;;;;;;;2.37;0.60;;;;;;;19.04;nan;100945.69;5935843;23;20543;-89
2023/04/27 01:18:17;;;;;;;;;;;;;;;;;;;;;
2023/04/27 01:21:30;;;;;;;;;;;;;;;;;;;;;
2023/04/27 01:25:14;;;;;;;1.30;0.60;;;;;;;18.83;nan;100926.94;6013892;23;20524;-87
2023/04/27 01:28:23;;;;;;;1.10;0.47;;;;;;;18.85;nan;100936.69;5941756;24;20449;-88
2023/04/27 01:30:52;;;;;;;1.10;0.43;;;;;;;18.64;nan;100912.41;6066592;23;20484;-88
2023/04/27 01:33:25;;;;;;;1.00;0.40;;;;;;;18.66;nan;100920.47;6019299;23;20411;-87
2023/04/27 01:35:56;;;;;;;1.33;0.50;;;;;;;18.59;nan;100917.81;6021951;23;20487;-88
2023/04/27 01:38:26;;;;;;;2.13;0.67;;;;;;;18.57;nan;100908.88;6066058;23;20415;-87
2023/04/27 01:41:00;;;;;;;3.47;0.47;;;;;;;18.60;nan;100916.75;6043102;23;20490;-88
2023/04/27 01:43:34;;;;;;;1.20;0.60;;;;;;;18.61;nan;100924.81;6020496;23;20522;-88
2023/04/27 01:46:07;;;;;;;2.03;0.70;;;;;;;18.39;nan;100895.19;6111339;23;20398;-88
2023/04/27 01:48:41;;;;;;;6.67;0.67;;;;;;;18.40;nan;100903.25;6159911;23;20467;-88
2023/04/27 01:51:09;;;;;;;2.37;0.60;;;;;;;18.35;nan;100907.81;6160087;23;20415;-88
2023/04/27 01:53:56;;;;;;;1.30;0.60;;;;;;;18.25;nan;100891.81;6111146;23;20439;-87
2023/04/27 01:57:05;;;;;;;1.57;0.60;;;;;;;18.18;nan;100880.88;6126901;23;20388;-88
2023/04/27 02:04:41;;;;;;;4.50;1.33;;;;;;;18.13;nan;100893.72;6050799;23;20458;-88
2023/04/27 02:11:35;;;;;;;4.27;0.80;;;;;;;18.14;nan;100885.19;6039225;23;20420;-89
2023/04/27 02:14:36;;;;;;;4.00;0.93;;;;;;;18.22;nan;100893.16;6068987;23;20500;-88
2023/04/27 02:17:07;;;;;;;1.33;0.60;;;;;;;18.13;nan;100885.44;6042920;23;20419;-88
2023/04/27 02:20:04;;;;;;;2.60;0.60;;;;;;;18.17;nan;100906.84;6066345;23;20419;-89
2023/04/27 02:26:45;;;;;;;5.37;0.70;;;;;;;17.98;nan;100907.19;5987150;23;20512;-89
2023/04/27 02:29:45;;;;;;;2.40;0.57;;;;;;;18.04;nan;100906.25;6036780;23;20424;-88
2023/04/27 02:40:36;;;;;;;3.50;0.80;;;;;;;17.93;nan;100900.44;5993633;23;20453;-89
2023/04/27 02:51:15;;;;;;;2.03;0.50;;;;;;;17.74;nan;100890.56;5862322;24;20473;-89
2023/04/27 02:54:28;;;;;;;1.73;0.80;;;;;;;17.82;nan;100909.56;5880941;24;20416;-88
2023/04/27 02:57:51;;;;;;;;;;;;;;;;;;;;;
2023/04/27 03:01:04;;;;;;;2.80;1.07;;;;;;;17.74;nan;100920.13;5772976;24;20490;-88
2023/04/27 03:04:12;;;;;;;1.43;0.70;;;;;;;17.59;nan;100893.75;5790109;24;20453;-89
2023/04/27 03:06:49;;;;;;;1.37;0.70;;;;;;;17.70;nan;100911.50;5815702;24;20511;-89
2023/04/27 03:09:43;;;;;;;;;;;;;;;;;;;;;
2023/04/27 03:12:32;;;;;;;3.97;0.83;;;;;;;17.62;nan;100897.97;5855762;24;20918;-88
2023/04/27 03:15:11;;;;;;;3.67;0.77;;;;;;;17.59;nan;100893.75;5919116;24;20753;-89
2023/04/27 03:17:57;;;;;;;4.40;0.80;;;;;;;17.63;nan;100905.19;5887485;24;20413;-88
2023/04/27 03:29:35;;;;;;;2.93;0.80;;;;;;;17.66;nan;100898.38;5956134;24;20426;-89
2023/04/27 03:32:53;;;;;;;2.87;0.70;;;;;;;17.61;nan;100897.13;5979902;24;20399;-89
2023/04/27 03:36:20;;;;;;;6.17;1.10;;;;;;;17.45;nan;100881.22;6005898;23;20405;-89
2023/04/27 03:39:12;;;;;;;1.87;0.70;;;;;;;17.42;nan;100881.69;6009411;23;20455;-89
2023/04/27 03:45:21;;;;;;;5.00;1.30;;;;;;;17.49;nan;100895.41;6021350;23;20416;-89
2023/04/27 03:48:01;;;;;;;3.47;1.27;;;;;;;17.41;nan;100868.09;5996377;23;20412;-88
2023/04/27 03:50:44;;;;;;;3.87;0.83;;;;;;;17.47;nan;100867.16;6016311;23;20725;-89
2023/04/27 03:53:23;;;;;;;3.97;1.87;;;;;;;17.46;nan;100877.38;6015904;23;20425;-88
2023/04/27 04:01:01;;;;;;;;;;;;;;;;;;;;;
2023/04/27 04:04:39;;;;;;;4.57;1.40;;;;;;;17.24;nan;100841.16;6085372;23;20590;-88
2023/04/27 04:07:43;;;;;;;;;;;;;;;;;;;;;
2023/04/27 04:14:55;;;;;;;3.87;0.97;;;;;;;17.35;nan;100853.31;5971165;24;20423;-88
2023/04/27 04:25:46;;;;;;;8.60;1.50;;;;;;;17.43;nan;100846.59;5818864;24;20514;-88
2023/04/27 04:33:13;;;;;;;;;;;;;;;;;;;;;
2023/04/27 04:36:09;;;;;;;4.67;1.17;;;;;;;17.21;nan;100849.06;5772319;24;20412;-88
2023/04/27 04:38:41;;;;;;;5.40;1.50;;;;;;;17.04;nan;100828.69;5797445;24;20416;-88
2023/04/27 04:41:12;;;;;;;7.57;1.30;;;;;;;16.98;nan;100824.09;5796593;24;20428;-88
2023/04/27 04:44:02;;;;;;;5.60;1.20;;;;;;;16.97;nan;100845.34;5797383;24;20944;-89
2023/04/27 04:46:42;;;;;;;7.33;1.13;;;;;;;16.86;nan;100832.34;5797255;24;20428;-88
2023/04/27 04:49:15;;;;;;;7.93;1.80;;;;;;;16.80;nan;100828.59;5802988;24;20426;-88
2023/04/27 04:51:50;;;;;;;3.27;1.43;;;;;;;16.77;nan;100828.22;5844799;24;20430;-88
2023/04/27 04:54:27;;;;;;;3.07;1.17;;;;;;;16.83;nan;100821.78;5823426;24;20883;-88
2023/04/27 05:01:26;;;;;;;4.03;1.33;;;;;;;16.77;nan;100817.16;5899049;24;20896;-89
2023/04/27 05:11:46;;;;;;;26.43;4.40;;;;;;;16.69;nan;100798.19;6067070;23;20717;-88
2023/04/27 05:23:18;;;;;;;6.07;1.70;;;;;;;16.58;nan;100785.97;6094880;23;20473;-89
2023/04/27 05:38:33;;;;;;;4.40;1.40;;;;;;;16.73;nan;100807.69;5840733;24;20461;-89
2023/04/27 05:41:58;;;;;;;8.60;1.30;;;;;;;16.72;nan;100814.28;5835646;24;20392;-90
2023/04/27 05:52:55;;;;;;;8.37;1.60;;;;;;;16.59;nan;100827.13;5818686;24;20400;-90
2023/04/27 06:22:59;;;;;;;;;;;;;;;;;;;;;
2023/04/27 06:58:49;;;;;;;9.10;1.80;;;;;;;17.70;nan;100847.91;5926079;24;20750;-90
2023/04/27 07:01:38;;;;;;;39.60;4.57;;;;;;;17.76;nan;100838.63;5925220;24;20443;-91
2023/04/27 07:12:35;;;;;;;10.57;2.67;;;;;;;18.26;nan;100840.94;6187125;23;20418;-92
2023/04/27 07:15:21;;;;;;;7.47;2.37;;;;;;;18.33;nan;100832.50;6164296;23;20407;-90
2023/04/27 07:17:54;;;;;;;14.10;2.83;;;;;;;18.43;nan;100833.56;6136909;23;20993;-90
2023/04/27 07:20:32;;;;;;;21.90;3.40;;;;;;;18.49;nan;100818.75;6161263;23;20416;-90
2023/04/27 07:47:31;;;;;;;14.30;3.43;;;;;;;19.66;nan;100866.22;6211923;23;20721;-89
2023/04/27 07:50:54;;;;;;;20.87;3.20;;;;;;;19.87;nan;100872.13;6141081;23;20480;-90
2023/04/27 08:01:25;;;;;;;15.93;2.70;;;;;;;20.66;nan;100876.41;6038871;23;20460;-89
2023/04/27 08:04:08;;;;;;;9.13;2.53;;;;;;;20.72;nan;100857.88;6007670;23;20484;-91
2023/04/27 08:06:45;;;;;;;7.83;2.23;;;;;;;20.93;nan;100870.09;5993464;23;20400;-93
2023/04/27 08:09:15;;;;;;;8.47;2.00;;;;;;;21.03;nan;100870.19;6016359;23;20952;-92
2023/04/27 08:11:44;;;;;;;9.47;1.80;;;;;;;21.16;nan;100869.81;5993372;23;20514;-92
2023/04/27 08:14:17;;;;;;;5.83;1.80;;;;;;;21.31;nan;100877.50;5992867;23;20517;-90
2023/04/27 08:16:45;;;;;;;6.70;1.70;;;;;;;21.44;nan;100882.66;6014975;23;20412;-90
2023/04/27 08:19:13;;;;;;;7.87;1.97;;;;;;;21.55;nan;100878.03;5992367;23;20517;-90
2023/04/27 08:24:46;;;;;;;11.20;2.20;;;;;;;21.92;nan;100881.72;6011780;23;20622;-88
2023/04/27 08:27:14;;;;;;;7.47;1.50;;;;;;;22.15;nan;100899.16;6014719;23;20943;-87
2023/04/27 08:37:34;;;;;;;6.20;1.70;;;;;;;22.79;nan;100893.47;6061685;23;20426;-89
2023/04/27 08:40:46;;;;;;;7.13;1.30;;;;;;;22.78;nan;100875.91;6092157;23;20430;-89
2023/04/27 08:43:14;;;;;;;7.83;1.33;;;;;;;22.87;nan;100890.19;6009987;23;20520;-87
2023/04/27 08:49:25;;;;;;;5.60;1.40;;;;;;;23.20;nan;100902.84;6038175;23;20903;-87
2023/04/27 09:53:33;;;;;;;8.20;1.23;;;;;;;26.57;nan;100897.56;6226466;22;20446;-87
2023/04/27 09:56:16;;;;;;;5.10;1.33;;;;;;;26.75;nan;100894.00;6189710;23;20418;-87
2023/04/27 12:33:39;;;;;;;7.10;2.17;;;;;;;31.13;nan;100881.16;6211967;23;20402;-87
2023/04/27 12:36:07;;;;;;;10.17;2.70;;;;;;;31.21;nan;100888.81;6142046;23;20406;-87
2023/04/27 12:38:36;;;;;;;14.43;2.57;;;;;;;31.24;nan;100882.50;6216906;23;20410;-88
2023/04/27 12:41:25;;;;;;;9.33;2.73;;;;;;;31.28;nan;100877.88;6142214;23;20409;-88
2023/04/27 12:43:56;;;;;;;13.07;2.90;;;;;;;31.26;nan;100874.53;6142298;23;20419;-88
2023/04/27 12:46:25;;;;;;;9.93;2.40;;;;;;;31.24;nan;100872.03;6190814;23;20407;-88
2023/04/27 12:49:06;;;;;;;10.60;2.50;;;;;;;31.27;nan;100876.22;6190309;23;20494;-87
2023/04/27 12:51:53;;;;;;;12.43;3.13;;;;;;;31.38;nan;100883.19;6141915;23;20493;-87
2023/04/27 12:54:58;;;;;;;11.17;2.80;;;;;;;31.37;nan;100881.53;6216489;23;20489;-87
2023/04/27 14:49:23;;;;;;;13.80;2.60;;;;;;;32.39;nan;100815.94;6210433;23;20541;-88
2023/04/27 15:07:20;;;;;;;12.23;3.00;;;;;;;32.29;nan;100803.00;6185611;23;20419;-88
2023/04/27 15:09:47;;;;;;;7.43;2.40;;;;;;;32.30;nan;100806.66;6159375;23;20407;-88
2023/04/27 15:12:15;;;;;;;11.33;2.40;;;;;;;32.31;nan;100802.66;6111204;23;20403;-88
2023/04/27 15:14:43;;;;;;;11.30;2.70;;;;;;;32.35;nan;100792.31;6111262;23;20537;-88
2023/04/27 15:17:12;;;;;;;11.77;2.87;;;;;;;32.31;nan;100791.34;6159513;23;20408;-88
2023/04/27 15:19:40;;;;;;;13.33;3.10;;;;;;;32.31;nan;100791.34;6159103;23;20407;-88
2023/04/27 15:22:08;;;;;;;17.33;3.20;;;;;;;;;;6111753;23;20474;-87
2023/04/27 15:24:36;;;;;;;11.60;3.13;;;;;;;;;;6135336;23;20439;-88
2023/04/27 15:41:16;;;;;;;15.47;3.30;;;;;;;;;;6187406;23;20923;-88
2023/04/27 15:43:45;;;;;;;16.70;3.10;;;;;;;;;;6187645;23;20906;-88
2023/04/27 15:46:13;;;;;;;15.87;2.60;;;;;;;;;;6160652;23;20399;-87
2023/04/27 15:48:41;;;;;;;17.73;3.07;;;;;;;;;;6136615;23;20406;-87
2023/04/27 16:51:42;;;;;;;22.10;4.23;;;;;;;;;;6214628;23;20806;-87
2023/04/27 16:54:09;;;;;;;22.43;3.87;;;;;;;;;;6165983;23;20481;-88
2023/04/27 16:56:38;;;;;;;15.37;3.50;;;;;;;;;;6165600;23;20402;-87
2023/04/27 16:59:06;;;;;;;18.00;4.27;;;;;;;;;;6165738;23;20399;-87
2023/04/27 17:01:33;;;;;;;12.73;3.73;;;;;;;;;;6165741;23;20441;-87
2023/04/27 17:04:01;;;;;;;15.70;3.37;;;;;;;;;;6216773;23;20434;-87
2023/04/27 17:06:28;;;;;;;7.97;3.03;;;;;;;;;;6190343;23;20399;-88
2023/04/27 17:08:56;;;;;;;14.17;4.00;;;;;;;;;;6165920;23;20432;-87
2023/04/27 17:11:24;;;;;;;11.43;3.80;;;;;;;;;;6215902;23;20406;-88
2023/04/27 17:13:52;;;;;;;10.00;2.60;;;;;;;;;;6166686;23;20713;-88
2023/04/27 17:16:20;;;;;;;16.00;3.60;;;;;;;;;;6190334;23;20513;-87
2023/04/27 17:18:48;;;;;;;10.93;3.50;;;;;;;;;;6166388;23;20398;-87
2023/04/27 17:21:16;;;;;;;14.80;3.70;;;;;;;;;;6165465;23;20470;-88
2023/04/27 17:23:46;;;;;;;32.77;5.40;;;;;;;;;;6190067;23;20960;-87
2023/04/27 20:09:50;;;;;;;11.70;3.73;;;;;;;;;;6216659;23;20897;-87
2023/04/27 20:12:17;;;;;;;13.83;3.90;;;;;;;;;;6190946;23;20395;-87
2023/04/27 20:15:05;;;;;;;17.43;3.00;;;;;;;;;;6174389;23;20453;-86
2023/04/27 20:28:20;;;;;;;13.43;3.70;;;;;;;;;;6217092;23;20367;-87
2023/04/27 20:30:48;;;;;;;10.80;3.47;;;;;;;;;;6216828;23;20407;-87
2023/04/27 21:42:09;;;;;;;13.73;3.30;;;;;;;20.29;nan;100858.63;6211484;23;20598;-90
2023/04/27 22:15:49;;;;;;;;;;;;;;;;;;;;;
2023/04/27 22:31:21;;;;;;;10.77;3.40;;;;;;;19.66;nan;100871.78;5925758;24;20411;-89
2023/04/27 22:47:34;;;;;;;8.43;3.37;;;;;;;19.57;nan;100867.75;5866003;24;20405;-89
2023/04/27 22:50:11;;;;;;;9.53;2.80;;;;;;;19.60;nan;100852.56;5863489;24;20418;-86
2023/04/27 22:52:41;;;;;;;9.73;3.20;;;;;;;19.62;nan;100855.91;5821814;24;20423;-85
2023/04/27 22:55:10;;;;;;;10.23;2.93;;;;;;;19.65;nan;100866.47;5822276;24;20415;-86
2023/04/27 22:57:38;;;;;;;11.07;2.87;;;;;;;19.63;nan;100865.88;5874783;24;20534;-85
2023/04/27 23:00:10;;;;;;;9.90;3.97;;;;;;;19.76;nan;100879.44;5870897;24;20501;-85
2023/04/27 23:02:38;;;;;;;11.87;3.73;;;;;;;19.80;nan;100885.34;5849082;24;20497;-85
2023/04/27 23:05:07;;;;;;;16.60;4.43;;;;;;;19.82;nan;100885.94;5990266;23;20444;-86
2023/04/27 23:07:36;;;;;;;11.57;3.60;;;;;;;19.77;nan;100878.38;6013434;23;20915;-85
2023/04/27 23:10:04;;;;;;;8.13;3.13;;;;;;;19.79;nan;100887.28;6066137;23;20407;-85
2023/04/27 23:12:33;;;;;;;22.97;4.13;;;;;;;19.79;nan;100892.81;6159275;23;20415;-85
2023/04/27 23:15:03;;;;;;;7.10;2.60;;;;;;;19.81;nan;100879.53;6134323;23;20409;-86
2023/04/27 23:17:32;;;;;;;10.87;3.00;;;;;;;19.72;nan;100872.72;6185100;23;20414;-86
2023/04/27 23:20:00;;;;;;;13.93;3.90;;;;;;;19.72;nan;100875.50;6158703;23;20404;-85
2023/04/27 23:22:28;;;;;;;8.17;3.00;;;;;;;19.61;nan;100854.25;6134770;23;20405;-86
2023/04/27 23:24:56;;;;;;;6.87;2.87;;;;;;;19.66;nan;100865.41;6182909;23;20438;-85
2023/04/27 23:27:25;;;;;;;7.77;2.40;;;;;;;19.53;nan;100854.63;6107127;23;20706;-86
2023/04/27 23:29:53;;;;;;;7.37;3.57;;;;;;;19.53;nan;100860.19;6184103;23;20463;-86
2023/04/27 23:32:21;;;;;;;12.70;2.57;;;;;;;19.47;nan;100850.06;6159549;23;20490;-85
2023/04/27 23:34:53;;;;;;;10.37;3.67;;;;;;;19.35;nan;100852.91;6159916;23;20891;-85
2023/04/27 23:37:23;;;;;;;7.40;2.80;;;;;;;19.39;nan;100856.03;6135701;23;20404;-85
2023/04/27 23:39:51;;;;;;;6.77;2.43;;;;;;;19.39;nan;100847.69;6160300;23;20977;-85
2023/04/27 23:42:18;;;;;;;7.20;2.80;;;;;;;19.36;nan;100839.88;6159085;23;20415;-85
2023/04/27 23:44:46;;;;;;;11.00;3.17;;;;;;;19.35;nan;100847.34;6159002;23;20443;-85
2023/04/27 23:47:14;;;;;;;7.23;2.70;;;;;;;19.36;nan;100848.19;6159281;23;20918;-85
2023/04/27 23:49:43;;;;;;;7.30;2.93;;;;;;;19.34;nan;100834.59;6137916;23;20430;-85
2023/04/27 23:52:28;;;;;;;10.43;2.83;;;;;;;19.35;nan;100835.44;6192888;23;20426;-85
2023/04/27 23:54:58;;;;;;;7.27;3.33;;;;;;;19.41;nan;100839.97;6190641;23;20403;-86
2023/04/27 23:57:26;;;;;;;9.00;3.10;;;;;;;19.43;nan;100832.25;6191525;23;20402;-85
2023/04/27 23:59:54;;;;;;;9.13;3.60;;;;;;;19.42;nan;100847.22;6142362;23;20410;-85
